EPKK Airport Information

Runway Information
Runway 07 Length 8366 ft width 197 ft
Elevation 792 ft Threshold 0 ft Heading 78
Runway 25 Length 8366 ft Width 197 ft
Elevation 779 ft Threshold 784 ft Heading 258
Airport Frequencies
Type APP Name KRAKOW APP Frequency 121.075 MHZ
Type ATIS Name ATIS Frequency 126.125 MHZ
Type DIR Name KRAKOW DIR Frequency 123.8 MHZ
Type TWR Name KRAKOW DEL Frequency 118.1 MHZ
Type TWR Name KRAKOW TWR Frequency 123.25 MHZ
Airport Navaids
Type NDB Name Krakow Frequency 353 KHZ
Airport Weather Information & NOTAM
ADDS - METARS form results

(0009 UTC 23 March 2019)
Data provider http://aviationweather.gov/metar/data/
 
METAR text: EPKK 230000Z 01003KT 2000 BR FEW028 04/04 Q1030
Conditions at: EPKK (KRAKOW/BALICE , PL) observed 0000 UTC 23 March 2019
Temperature: 4.0°C (39°F)
Dewpoint: 4.0°C (39°F) [RH = 100%]
Pressure (altimeter): 30.41 inches Hg (1030.0 mb)
Winds: from the N (10 degrees) at 3 MPH (3 knots; 1.5 m/s)
Visibility: 1.24 miles (2.00 km)
Ceiling: at least 12,000 feet AGL
Clouds: few clouds at 2800 feet AGL
Weather: BR  (mist)

METAR text: EPKK 222330Z VRB02KT 3500 BR NSC 05/04 Q1030
Conditions at: EPKK (KRAKOW/BALICE , PL) observed 2330 UTC 22 March 2019
Temperature: 5.0°C (41°F)
Dewpoint: 4.0°C (39°F) [RH = 93%]
Pressure (altimeter): 30.41 inches Hg (1030.0 mb)
Winds: variable direction winds at 2 MPH (2 knots; 1.0 m/s)
Visibility: 2.17 miles (3.49 km)
Ceiling: at least 12,000 feet AGL
Clouds: sky clear below 12,000 feet AGL
Weather: BR  (mist)

Forecast for: EPKK (KRAKOW/BALICE , PL)
Text: TAF EPKK 222330Z 2300/2324 06001KT 1500 BR NSC
Forecast period: 0000 to 0800 UTC 23 March 2019
Forecast type: FROM: standard forecast or significant change
Winds: from the ENE (60 degrees) at 1 MPH (1 knots; 0.5 m/s)
Visibility: 0.93 miles (1.50 km)
Ceiling: unknown
Clouds: missing
Weather: BR  (mist)
Text: TEMPO 2300/2307 0300 FG
Forecast period: 0000 to 0700 UTC 23 March 2019
Forecast type: TEMPORARY: The following changes expected for less than half the time period
Visibility: 0.19 miles (0.31 km)
Ceiling: unknown
Clouds: missing
Weather: FG  (fog)
Text: BECMG 2308/2311 CAVOK
Forecast period: 0800 UTC 23 March 2019 to 0000 UTC 24 March 2019
Forecast type: BECOMING: Conditions expected to become as follows by 1100 UTC 23 March 2019
Winds: from the ENE (60 degrees) at 1 MPH (1 knots; 0.5 m/s)
Visibility: 6 or more miles 10+ km)
Ceiling: unknown
Clouds: missing
Weather: NSW  (no significant weather)